sensor_id;sensor_type;location;lat;lon;timestamp;P1;durP1;ratioP1;P2;durP2;ratioP2
48207;SDS011;33997;53.278;9.708;2024-03-02T00:02:00;9.25;;;3.97;;
48207;SDS011;33997;53.278;9.708;2024-03-02T00:04:25;8.98;;;4.38;;
48207;SDS011;33997;53.278;9.708;2024-03-02T00:06:54;6.13;;;3.10;;
48207;SDS011;33997;53.278;9.708;2024-03-02T00:09:20;6.15;;;3.78;;
48207;SDS011;33997;53.278;9.708;2024-03-02T00:11:45;7.18;;;4.00;;
48207;SDS011;33997;53.278;9.708;2024-03-02T00:14:11;10.15;;;4.35;;
48207;SDS011;33997;53.278;9.708;2024-03-02T00:16:37;4.80;;;2.88;;
48207;SDS011;33997;53.278;9.708;2024-03-02T00:19:03;6.53;;;3.40;;
48207;SDS011;33997;53.278;9.708;2024-03-02T00:21:30;7.90;;;4.05;;
48207;SDS011;33997;53.278;9.708;2024-03-02T00:23:56;8.15;;;3.72;;
48207;SDS011;33997;53.278;9.708;2024-03-02T00:26:22;6.78;;;3.92;;
48207;SDS011;33997;53.278;9.708;2024-03-02T00:28:47;7.07;;;3.83;;
48207;SDS011;33997;53.278;9.708;2024-03-02T00:31:15;11.52;;;4.68;;
48207;SDS011;33997;53.278;9.708;2024-03-02T00:33:45;7.10;;;3.92;;
48207;SDS011;33997;53.278;9.708;2024-03-02T00:36:12;7.97;;;3.85;;
48207;SDS011;33997;53.278;9.708;2024-03-02T00:38:47;7.70;;;4.47;;
48207;SDS011;33997;53.278;9.708;2024-03-02T00:41:20;7.13;;;3.72;;
48207;SDS011;33997;53.278;9.708;2024-03-02T00:44:00;9.30;;;4.55;;
48207;SDS011;33997;53.278;9.708;2024-03-02T00:46:34;6.72;;;3.72;;
48207;SDS011;33997;53.278;9.708;2024-03-02T00:49:05;8.00;;;3.92;;
48207;SDS011;33997;53.278;9.708;2024-03-02T00:51:51;8.15;;;4.10;;
48207;SDS011;33997;53.278;9.708;2024-03-02T00:54:19;7.03;;;3.58;;
48207;SDS011;33997;53.278;9.708;2024-03-02T00:56:47;7.53;;;3.63;;
48207;SDS011;33997;53.278;9.708;2024-03-02T00:59:12;8.90;;;4.45;;
48207;SDS011;33997;53.278;9.708;2024-03-02T01:01:38;9.63;;;4.20;;
48207;SDS011;33997;53.278;9.708;2024-03-02T01:04:03;8.30;;;4.18;;
48207;SDS011;33997;53.278;9.708;2024-03-02T01:06:30;7.90;;;4.20;;
48207;SDS011;33997;53.278;9.708;2024-03-02T01:08:55;9.27;;;4.13;;
48207;SDS011;33997;53.278;9.708;2024-03-02T01:11:21;10.68;;;4.40;;
48207;SDS011;33997;53.278;9.708;2024-03-02T01:13:47;8.07;;;4.15;;
48207;SDS011;33997;53.278;9.708;2024-03-02T01:16:12;8.40;;;4.50;;
48207;SDS011;33997;53.278;9.708;2024-03-02T01:18:38;10.50;;;4.32;;
48207;SDS011;33997;53.278;9.708;2024-03-02T01:21:04;7.65;;;3.83;;
48207;SDS011;33997;53.278;9.708;2024-03-02T01:23:29;7.03;;;4.07;;
48207;SDS011;33997;53.278;9.708;2024-03-02T01:25:55;10.00;;;4.28;;
48207;SDS011;33997;53.278;9.708;2024-03-02T01:28:20;8.35;;;3.80;;
48207;SDS011;33997;53.278;9.708;2024-03-02T01:30:46;9.65;;;4.32;;
48207;SDS011;33997;53.278;9.708;2024-03-02T01:33:12;8.57;;;4.40;;
48207;SDS011;33997;53.278;9.708;2024-03-02T01:35:38;8.60;;;4.18;;
48207;SDS011;33997;53.278;9.708;2024-03-02T01:38:03;8.30;;;4.68;;
48207;SDS011;33997;53.278;9.708;2024-03-02T01:40:31;9.75;;;4.47;;
48207;SDS011;33997;53.278;9.708;2024-03-02T01:42:57;8.95;;;4.82;;
48207;SDS011;33997;53.278;9.708;2024-03-02T01:45:25;8.63;;;4.32;;
48207;SDS011;33997;53.278;9.708;2024-03-02T01:47:51;7.95;;;4.22;;
48207;SDS011;33997;53.278;9.708;2024-03-02T01:50:24;9.43;;;4.15;;
48207;SDS011;33997;53.278;9.708;2024-03-02T01:52:53;9.57;;;4.60;;
48207;SDS011;33997;53.278;9.708;2024-03-02T01:55:20;9.00;;;3.90;;
48207;SDS011;33997;53.278;9.708;2024-03-02T01:57:46;7.93;;;4.25;;
48207;SDS011;33997;53.278;9.708;2024-03-02T02:00:13;8.02;;;4.25;;
48207;SDS011;33997;53.278;9.708;2024-03-02T02:02:39;6.78;;;3.67;;
48207;SDS011;33997;53.278;9.708;2024-03-02T02:05:04;9.43;;;4.53;;
48207;SDS011;33997;53.278;9.708;2024-03-02T02:07:30;9.38;;;3.78;;
48207;SDS011;33997;53.278;9.708;2024-03-02T02:09:56;9.60;;;4.03;;
48207;SDS011;33997;53.278;9.708;2024-03-02T02:12:22;7.65;;;4.18;;
48207;SDS011;33997;53.278;9.708;2024-03-02T02:14:48;9.85;;;4.15;;
48207;SDS011;33997;53.278;9.708;2024-03-02T02:17:15;6.70;;;3.80;;
48207;SDS011;33997;53.278;9.708;2024-03-02T02:19:41;8.85;;;3.55;;
48207;SDS011;33997;53.278;9.708;2024-03-02T02:22:07;7.82;;;4.50;;
48207;SDS011;33997;53.278;9.708;2024-03-02T02:24:33;7.47;;;3.88;;
48207;SDS011;33997;53.278;9.708;2024-03-02T02:26:58;7.80;;;3.70;;
48207;SDS011;33997;53.278;9.708;2024-03-02T02:29:24;8.98;;;4.47;;
48207;SDS011;33997;53.278;9.708;2024-03-02T02:31:49;7.25;;;3.83;;
48207;SDS011;33997;53.278;9.708;2024-03-02T02:34:15;8.00;;;4.38;;
48207;SDS011;33997;53.278;9.708;2024-03-02T02:36:41;7.43;;;3.90;;
48207;SDS011;33997;53.278;9.708;2024-03-02T02:39:07;8.38;;;4.45;;
48207;SDS011;33997;53.278;9.708;2024-03-02T02:41:36;8.07;;;4.13;;
48207;SDS011;33997;53.278;9.708;2024-03-02T02:44:01;7.28;;;3.55;;
48207;SDS011;33997;53.278;9.708;2024-03-02T02:46:27;7.22;;;3.88;;
48207;SDS011;33997;53.278;9.708;2024-03-02T02:48:52;8.63;;;4.63;;
48207;SDS011;33997;53.278;9.708;2024-03-02T02:51:18;7.93;;;4.13;;
48207;SDS011;33997;53.278;9.708;2024-03-02T02:53:44;9.93;;;4.70;;
48207;SDS011;33997;53.278;9.708;2024-03-02T02:56:09;7.00;;;3.72;;
48207;SDS011;33997;53.278;9.708;2024-03-02T02:58:35;7.95;;;4.15;;
48207;SDS011;33997;53.278;9.708;2024-03-02T03:01:01;7.00;;;3.95;;
48207;SDS011;33997;53.278;9.708;2024-03-02T03:03:26;9.00;;;4.72;;
48207;SDS011;33997;53.278;9.708;2024-03-02T03:05:52;6.57;;;3.58;;
48207;SDS011;33997;53.278;9.708;2024-03-02T03:08:17;10.10;;;4.65;;
48207;SDS011;33997;53.278;9.708;2024-03-02T03:10:43;7.43;;;3.70;;
48207;SDS011;33997;53.278;9.708;2024-03-02T03:13:09;10.93;;;4.53;;
48207;SDS011;33997;53.278;9.708;2024-03-02T03:15:35;9.80;;;4.93;;
48207;SDS011;33997;53.278;9.708;2024-03-02T03:18:04;9.23;;;4.05;;
48207;SDS011;33997;53.278;9.708;2024-03-02T03:20:30;6.70;;;3.75;;
48207;SDS011;33997;53.278;9.708;2024-03-02T03:22:56;8.90;;;4.40;;
48207;SDS011;33997;53.278;9.708;2024-03-02T03:25:21;9.65;;;4.57;;
48207;SDS011;33997;53.278;9.708;2024-03-02T03:27:47;8.77;;;4.85;;
48207;SDS011;33997;53.278;9.708;2024-03-02T03:30:13;9.43;;;4.75;;
48207;SDS011;33997;53.278;9.708;2024-03-02T03:32:39;8.95;;;4.85;;
48207;SDS011;33997;53.278;9.708;2024-03-02T03:35:05;8.18;;;4.85;;
48207;SDS011;33997;53.278;9.708;2024-03-02T03:37:31;7.38;;;3.97;;
48207;SDS011;33997;53.278;9.708;2024-03-02T03:39:57;8.20;;;4.22;;
48207;SDS011;33997;53.278;9.708;2024-03-02T03:42:26;8.57;;;4.35;;
48207;SDS011;33997;53.278;9.708;2024-03-02T03:44:52;8.70;;;4.28;;
48207;SDS011;33997;53.278;9.708;2024-03-02T03:47:17;8.88;;;3.97;;
48207;SDS011;33997;53.278;9.708;2024-03-02T03:49:43;10.63;;;4.65;;
48207;SDS011;33997;53.278;9.708;2024-03-02T03:52:09;8.15;;;4.43;;
48207;SDS011;33997;53.278;9.708;2024-03-02T03:54:34;9.07;;;4.82;;
48207;SDS011;33997;53.278;9.708;2024-03-02T03:57:02;8.23;;;4.55;;
48207;SDS011;33997;53.278;9.708;2024-03-02T03:59:27;8.20;;;4.65;;
48207;SDS011;33997;53.278;9.708;2024-03-02T04:01:53;8.20;;;4.40;;
48207;SDS011;33997;53.278;9.708;2024-03-02T04:04:18;9.45;;;4.40;;
48207;SDS011;33997;53.278;9.708;2024-03-02T04:06:44;9.43;;;3.97;;
48207;SDS011;33997;53.278;9.708;2024-03-02T04:09:09;10.07;;;5.05;;
48207;SDS011;33997;53.278;9.708;2024-03-02T04:11:35;11.43;;;5.43;;
48207;SDS011;33997;53.278;9.708;2024-03-02T04:14:00;8.60;;;4.55;;
48207;SDS011;33997;53.278;9.708;2024-03-02T04:16:26;8.05;;;4.25;;
48207;SDS011;33997;53.278;9.708;2024-03-02T04:18:51;10.57;;;5.13;;
48207;SDS011;33997;53.278;9.708;2024-03-02T04:21:17;9.02;;;5.13;;
48207;SDS011;33997;53.278;9.708;2024-03-02T04:23:42;9.63;;;4.80;;
48207;SDS011;33997;53.278;9.708;2024-03-02T04:26:08;9.85;;;5.72;;
48207;SDS011;33997;53.278;9.708;2024-03-02T04:28:33;9.10;;;4.80;;
48207;SDS011;33997;53.278;9.708;2024-03-02T04:30:59;10.50;;;5.10;;
48207;SDS011;33997;53.278;9.708;2024-03-02T04:33:24;8.90;;;4.85;;
48207;SDS011;33997;53.278;9.708;2024-03-02T04:35:49;10.75;;;4.97;;
48207;SDS011;33997;53.278;9.708;2024-03-02T04:38:15;8.90;;;4.70;;
48207;SDS011;33997;53.278;9.708;2024-03-02T04:40:41;10.57;;;5.30;;
48207;SDS011;33997;53.278;9.708;2024-03-02T04:43:06;13.60;;;5.45;;
48207;SDS011;33997;53.278;9.708;2024-03-02T04:45:34;10.65;;;5.68;;
48207;SDS011;33997;53.278;9.708;2024-03-02T04:47:59;10.75;;;5.70;;
48207;SDS011;33997;53.278;9.708;2024-03-02T04:50:24;11.52;;;5.38;;
48207;SDS011;33997;53.278;9.708;2024-03-02T04:52:50;8.10;;;4.95;;
48207;SDS011;33997;53.278;9.708;2024-03-02T04:55:15;9.65;;;5.13;;
48207;SDS011;33997;53.278;9.708;2024-03-02T04:57:41;10.48;;;5.03;;
48207;SDS011;33997;53.278;9.708;2024-03-02T05:00:06;12.35;;;5.32;;
48207;SDS011;33997;53.278;9.708;2024-03-02T05:02:33;9.07;;;4.50;;
48207;SDS011;33997;53.278;9.708;2024-03-02T05:04:59;9.55;;;5.18;;
48207;SDS011;33997;53.278;9.708;2024-03-02T05:07:25;9.60;;;5.82;;
48207;SDS011;33997;53.278;9.708;2024-03-02T05:09:50;8.68;;;4.75;;
48207;SDS011;33997;53.278;9.708;2024-03-02T05:12:15;9.73;;;5.15;;
48207;SDS011;33997;53.278;9.708;2024-03-02T05:15:00;9.93;;;5.28;;
48207;SDS011;33997;53.278;9.708;2024-03-02T05:17:25;12.05;;;6.05;;
48207;SDS011;33997;53.278;9.708;2024-03-02T05:19:51;10.25;;;5.45;;
48207;SDS011;33997;53.278;9.708;2024-03-02T05:22:16;12.68;;;5.90;;
48207;SDS011;33997;53.278;9.708;2024-03-02T05:24:42;9.35;;;5.05;;
48207;SDS011;33997;53.278;9.708;2024-03-02T05:27:07;8.93;;;5.05;;
48207;SDS011;33997;53.278;9.708;2024-03-02T05:29:32;12.05;;;6.07;;
48207;SDS011;33997;53.278;9.708;2024-03-02T05:31:58;9.82;;;5.47;;
48207;SDS011;33997;53.278;9.708;2024-03-02T05:34:23;11.07;;;5.20;;
48207;SDS011;33997;53.278;9.708;2024-03-02T05:36:49;13.65;;;6.43;;
48207;SDS011;33997;53.278;9.708;2024-03-02T05:39:14;10.80;;;5.13;;
48207;SDS011;33997;53.278;9.708;2024-03-02T05:41:40;12.32;;;6.30;;
48207;SDS011;33997;53.278;9.708;2024-03-02T05:44:06;13.30;;;5.15;;
48207;SDS011;33997;53.278;9.708;2024-03-02T05:46:31;10.48;;;5.90;;
48207;SDS011;33997;53.278;9.708;2024-03-02T05:48:58;10.82;;;5.50;;
48207;SDS011;33997;53.278;9.708;2024-03-02T05:51:24;11.57;;;5.70;;
48207;SDS011;33997;53.278;9.708;2024-03-02T05:53:49;12.65;;;6.10;;
48207;SDS011;33997;53.278;9.708;2024-03-02T05:56:15;12.18;;;5.57;;
48207;SDS011;33997;53.278;9.708;2024-03-02T05:58:40;10.70;;;5.35;;
48207;SDS011;33997;53.278;9.708;2024-03-02T06:01:09;12.55;;;5.97;;
48207;SDS011;33997;53.278;9.708;2024-03-02T06:03:34;12.10;;;5.10;;
48207;SDS011;33997;53.278;9.708;2024-03-02T06:05:59;10.25;;;5.28;;
48207;SDS011;33997;53.278;9.708;2024-03-02T06:08:25;10.18;;;5.15;;
48207;SDS011;33997;53.278;9.708;2024-03-02T06:10:50;9.88;;;5.53;;
48207;SDS011;33997;53.278;9.708;2024-03-02T06:13:16;11.48;;;5.60;;
48207;SDS011;33997;53.278;9.708;2024-03-02T06:15:41;13.23;;;6.32;;
48207;SDS011;33997;53.278;9.708;2024-03-02T06:18:07;12.88;;;6.75;;
48207;SDS011;33997;53.278;9.708;2024-03-02T06:20:33;11.85;;;4.97;;
48207;SDS011;33997;53.278;9.708;2024-03-02T06:22:58;11.85;;;5.55;;
48207;SDS011;33997;53.278;9.708;2024-03-02T06:25:24;10.77;;;4.75;;
48207;SDS011;33997;53.278;9.708;2024-03-02T06:27:49;12.00;;;5.25;;
48207;SDS011;33997;53.278;9.708;2024-03-02T06:30:15;11.70;;;5.10;;
48207;SDS011;33997;53.278;9.708;2024-03-02T06:32:40;10.23;;;5.90;;
48207;SDS011;33997;53.278;9.708;2024-03-02T06:35:06;11.05;;;5.90;;
48207;SDS011;33997;53.278;9.708;2024-03-02T06:37:34;12.15;;;4.88;;
48207;SDS011;33997;53.278;9.708;2024-03-02T06:40:01;10.82;;;5.78;;
48207;SDS011;33997;53.278;9.708;2024-03-02T06:42:27;8.57;;;4.88;;
48207;SDS011;33997;53.278;9.708;2024-03-02T06:44:58;14.68;;;5.95;;
48207;SDS011;33997;53.278;9.708;2024-03-02T06:47:23;10.68;;;5.90;;
48207;SDS011;33997;53.278;9.708;2024-03-02T06:49:49;10.60;;;5.35;;
48207;SDS011;33997;53.278;9.708;2024-03-02T06:52:14;9.50;;;5.03;;
48207;SDS011;33997;53.278;9.708;2024-03-02T06:54:40;10.48;;;4.85;;
48207;SDS011;33997;53.278;9.708;2024-03-02T06:57:05;11.93;;;5.20;;
48207;SDS011;33997;53.278;9.708;2024-03-02T06:59:30;11.70;;;5.32;;
48207;SDS011;33997;53.278;9.708;2024-03-02T07:01:56;10.88;;;5.30;;
48207;SDS011;33997;53.278;9.708;2024-03-02T07:04:21;12.65;;;5.32;;
48207;SDS011;33997;53.278;9.708;2024-03-02T07:06:47;14.80;;;5.93;;
48207;SDS011;33997;53.278;9.708;2024-03-02T07:09:12;10.20;;;5.88;;
48207;SDS011;33997;53.278;9.708;2024-03-02T07:11:38;10.07;;;5.28;;
48207;SDS011;33997;53.278;9.708;2024-03-02T07:14:03;11.18;;;5.47;;
48207;SDS011;33997;53.278;9.708;2024-03-02T07:16:29;14.88;;;6.20;;
48207;SDS011;33997;53.278;9.708;2024-03-02T07:18:59;9.38;;;5.18;;
48207;SDS011;33997;53.278;9.708;2024-03-02T07:21:26;12.57;;;6.22;;
48207;SDS011;33997;53.278;9.708;2024-03-02T07:23:52;9.98;;;5.53;;
48207;SDS011;33997;53.278;9.708;2024-03-02T07:26:18;10.95;;;5.22;;
48207;SDS011;33997;53.278;9.708;2024-03-02T07:28:44;13.00;;;5.70;;
48207;SDS011;33997;53.278;9.708;2024-03-02T07:31:11;11.70;;;5.53;;
48207;SDS011;33997;53.278;9.708;2024-03-02T07:33:36;12.48;;;5.43;;
48207;SDS011;33997;53.278;9.708;2024-03-02T07:36:02;10.30;;;5.68;;
48207;SDS011;33997;53.278;9.708;2024-03-02T07:38:28;9.00;;;4.88;;
48207;SDS011;33997;53.278;9.708;2024-03-02T07:40:54;10.55;;;5.13;;
48207;SDS011;33997;53.278;9.708;2024-03-02T07:43:20;11.73;;;4.82;;
48207;SDS011;33997;53.278;9.708;2024-03-02T07:45:46;13.50;;;5.63;;
48207;SDS011;33997;53.278;9.708;2024-03-02T07:48:12;10.88;;;5.07;;
48207;SDS011;33997;53.278;9.708;2024-03-02T07:50:38;8.40;;;4.32;;
48207;SDS011;33997;53.278;9.708;2024-03-02T07:53:04;9.43;;;4.95;;
48207;SDS011;33997;53.278;9.708;2024-03-02T07:55:31;11.95;;;4.78;;
48207;SDS011;33997;53.278;9.708;2024-03-02T07:57:56;11.18;;;6.10;;
48207;SDS011;33997;53.278;9.708;2024-03-02T08:00:22;11.05;;;5.18;;
48207;SDS011;33997;53.278;9.708;2024-03-02T08:02:48;11.00;;;4.85;;
48207;SDS011;33997;53.278;9.708;2024-03-02T08:05:17;9.95;;;4.75;;
48207;SDS011;33997;53.278;9.708;2024-03-02T08:07:46;10.25;;;5.72;;
48207;SDS011;33997;53.278;9.708;2024-03-02T08:10:12;10.05;;;4.70;;
48207;SDS011;33997;53.278;9.708;2024-03-02T08:12:38;8.73;;;4.80;;
48207;SDS011;33997;53.278;9.708;2024-03-02T08:15:04;10.68;;;5.20;;
48207;SDS011;33997;53.278;9.708;2024-03-02T08:17:30;10.40;;;5.50;;
48207;SDS011;33997;53.278;9.708;2024-03-02T08:19:56;10.60;;;5.78;;
48207;SDS011;33997;53.278;9.708;2024-03-02T08:22:22;12.18;;;5.90;;
48207;SDS011;33997;53.278;9.708;2024-03-02T08:24:50;10.95;;;5.57;;
48207;SDS011;33997;53.278;9.708;2024-03-02T08:27:16;9.68;;;5.57;;
48207;SDS011;33997;53.278;9.708;2024-03-02T08:29:41;8.75;;;4.60;;
48207;SDS011;33997;53.278;9.708;2024-03-02T08:32:07;9.25;;;4.63;;
48207;SDS011;33997;53.278;9.708;2024-03-02T08:34:32;9.60;;;5.30;;
48207;SDS011;33997;53.278;9.708;2024-03-02T08:37:00;11.93;;;6.15;;
48207;SDS011;33997;53.278;9.708;2024-03-02T08:39:26;8.55;;;4.72;;
48207;SDS011;33997;53.278;9.708;2024-03-02T08:41:52;10.70;;;5.22;;
48207;SDS011;33997;53.278;9.708;2024-03-02T08:44:18;9.80;;;5.28;;
48207;SDS011;33997;53.278;9.708;2024-03-02T08:46:44;9.43;;;4.75;;
48207;SDS011;33997;53.278;9.708;2024-03-02T08:49:09;11.38;;;5.35;;
48207;SDS011;33997;53.278;9.708;2024-03-02T08:51:35;11.90;;;5.80;;
48207;SDS011;33997;53.278;9.708;2024-03-02T08:54:00;11.55;;;5.68;;
48207;SDS011;33997;53.278;9.708;2024-03-02T08:56:26;11.10;;;5.90;;
48207;SDS011;33997;53.278;9.708;2024-03-02T08:58:51;11.27;;;5.18;;
48207;SDS011;33997;53.278;9.708;2024-03-02T09:01:17;7.97;;;4.30;;
48207;SDS011;33997;53.278;9.708;2024-03-02T09:03:44;10.27;;;4.60;;
48207;SDS011;33997;53.278;9.708;2024-03-02T09:06:10;9.00;;;4.63;;
48207;SDS011;33997;53.278;9.708;2024-03-02T09:08:36;9.75;;;4.68;;
48207;SDS011;33997;53.278;9.708;2024-03-02T09:11:04;10.15;;;5.32;;
48207;SDS011;33997;53.278;9.708;2024-03-02T09:13:31;9.38;;;4.75;;
48207;SDS011;33997;53.278;9.708;2024-03-02T09:15:57;10.63;;;5.32;;
48207;SDS011;33997;53.278;9.708;2024-03-02T09:18:22;8.80;;;4.70;;
48207;SDS011;33997;53.278;9.708;2024-03-02T09:20:48;8.30;;;4.45;;
48207;SDS011;33997;53.278;9.708;2024-03-02T09:23:13;9.38;;;5.13;;
48207;SDS011;33997;53.278;9.708;2024-03-02T09:25:39;9.60;;;4.50;;
48207;SDS011;33997;53.278;9.708;2024-03-02T09:28:05;9.52;;;4.47;;
48207;SDS011;33997;53.278;9.708;2024-03-02T09:30:30;10.10;;;4.75;;
48207;SDS011;33997;53.278;9.708;2024-03-02T09:32:56;9.93;;;4.70;;
48207;SDS011;33997;53.278;9.708;2024-03-02T09:35:21;9.55;;;4.82;;
48207;SDS011;33997;53.278;9.708;2024-03-02T09:37:47;8.75;;;4.55;;
48207;SDS011;33997;53.278;9.708;2024-03-02T09:40:13;10.50;;;4.60;;
48207;SDS011;33997;53.278;9.708;2024-03-02T09:42:39;8.88;;;4.60;;
48207;SDS011;33997;53.278;9.708;2024-03-02T09:45:06;8.90;;;4.63;;
48207;SDS011;33997;53.278;9.708;2024-03-02T09:47:32;9.93;;;4.90;;
48207;SDS011;33997;53.278;9.708;2024-03-02T09:49:57;8.05;;;4.35;;
48207;SDS011;33997;53.278;9.708;2024-03-02T09:52:23;7.90;;;3.53;;
48207;SDS011;33997;53.278;9.708;2024-03-02T09:54:49;7.45;;;3.88;;
48207;SDS011;33997;53.278;9.708;2024-03-02T09:57:14;9.30;;;3.97;;
48207;SDS011;33997;53.278;9.708;2024-03-02T09:59:40;8.20;;;4.25;;
48207;SDS011;33997;53.278;9.708;2024-03-02T10:02:05;7.93;;;4.00;;
48207;SDS011;33997;53.278;9.708;2024-03-02T10:04:32;8.55;;;4.22;;
48207;SDS011;33997;53.278;9.708;2024-03-02T10:07:14;8.00;;;4.30;;
48207;SDS011;33997;53.278;9.708;2024-03-02T10:09:41;8.20;;;3.80;;
48207;SDS011;33997;53.278;9.708;2024-03-02T10:12:09;8.77;;;4.18;;
48207;SDS011;33997;53.278;9.708;2024-03-02T10:14:36;8.05;;;3.70;;
48207;SDS011;33997;53.278;9.708;2024-03-02T10:17:09;9.55;;;3.90;;
48207;SDS011;33997;53.278;9.708;2024-03-02T10:19:38;7.22;;;4.18;;
48207;SDS011;33997;53.278;9.708;2024-03-02T10:22:05;8.45;;;3.55;;
48207;SDS011;33997;53.278;9.708;2024-03-02T10:24:42;7.57;;;3.65;;
48207;SDS011;33997;53.278;9.708;2024-03-02T10:27:10;7.88;;;3.92;;
48207;SDS011;33997;53.278;9.708;2024-03-02T10:29:46;8.73;;;4.13;;
48207;SDS011;33997;53.278;9.708;2024-03-02T10:32:12;7.60;;;3.45;;
48207;SDS011;33997;53.278;9.708;2024-03-02T10:34:41;7.47;;;3.63;;
48207;SDS011;33997;53.278;9.708;2024-03-02T10:37:10;6.78;;;3.28;;
48207;SDS011;33997;53.278;9.708;2024-03-02T10:39:36;7.82;;;3.92;;
48207;SDS011;33997;53.278;9.708;2024-03-02T10:42:04;9.73;;;4.18;;
48207;SDS011;33997;53.278;9.708;2024-03-02T10:44:31;7.07;;;3.50;;
48207;SDS011;33997;53.278;9.708;2024-03-02T10:47:01;7.00;;;3.40;;
48207;SDS011;33997;53.278;9.708;2024-03-02T10:51:55;6.78;;;3.20;;
48207;SDS011;33997;53.278;9.708;2024-03-02T10:54:21;7.70;;;3.53;;
48207;SDS011;33997;53.278;9.708;2024-03-02T10:56:51;8.60;;;3.63;;
48207;SDS011;33997;53.278;9.708;2024-03-02T10:59:22;8.48;;;3.67;;
48207;SDS011;33997;53.278;9.708;2024-03-02T11:01:56;6.75;;;3.42;;
48207;SDS011;33997;53.278;9.708;2024-03-02T11:04:24;8.45;;;3.97;;
48207;SDS011;33997;53.278;9.708;2024-03-02T11:06:51;8.75;;;3.72;;
48207;SDS011;33997;53.278;9.708;2024-03-02T11:09:21;6.80;;;3.50;;
48207;SDS011;33997;53.278;9.708;2024-03-02T11:11:54;7.22;;;3.65;;
48207;SDS011;33997;53.278;9.708;2024-03-02T11:14:26;7.18;;;3.50;;
48207;SDS011;33997;53.278;9.708;2024-03-02T11:16:56;5.67;;;2.70;;
48207;SDS011;33997;53.278;9.708;2024-03-02T11:19:23;7.47;;;3.45;;
48207;SDS011;33997;53.278;9.708;2024-03-02T11:21:49;6.47;;;3.03;;
48207;SDS011;33997;53.278;9.708;2024-03-02T11:26:52;7.43;;;3.38;;
48207;SDS011;33997;53.278;9.708;2024-03-02T11:32:15;6.07;;;3.05;;
48207;SDS011;33997;53.278;9.708;2024-03-02T11:34:49;6.30;;;2.80;;
48207;SDS011;33997;53.278;9.708;2024-03-02T11:37:15;5.90;;;2.60;;
48207;SDS011;33997;53.278;9.708;2024-03-02T11:39:43;5.75;;;3.08;;
48207;SDS011;33997;53.278;9.708;2024-03-02T11:42:11;7.53;;;3.13;;
48207;SDS011;33997;53.278;9.708;2024-03-02T11:44:39;6.25;;;3.00;;
48207;SDS011;33997;53.278;9.708;2024-03-02T11:47:07;6.45;;;2.47;;
48207;SDS011;33997;53.278;9.708;2024-03-02T11:49:36;6.00;;;2.60;;
48207;SDS011;33997;53.278;9.708;2024-03-02T11:52:02;4.10;;;2.33;;
48207;SDS011;33997;53.278;9.708;2024-03-02T11:54:32;4.47;;;2.00;;
48207;SDS011;33997;53.278;9.708;2024-03-02T11:56:59;5.03;;;2.22;;
48207;SDS011;33997;53.278;9.708;2024-03-02T11:59:27;5.47;;;2.42;;
48207;SDS011;33997;53.278;9.708;2024-03-02T12:01:54;6.40;;;2.83;;
48207;SDS011;33997;53.278;9.708;2024-03-02T12:04:21;6.07;;;2.72;;
48207;SDS011;33997;53.278;9.708;2024-03-02T12:06:47;7.82;;;3.30;;
48207;SDS011;33997;53.278;9.708;2024-03-02T12:09:19;6.38;;;2.67;;
48207;SDS011;33997;53.278;9.708;2024-03-02T12:11:46;7.05;;;2.67;;
48207;SDS011;33997;53.278;9.708;2024-03-02T12:14:11;7.25;;;2.60;;
48207;SDS011;33997;53.278;9.708;2024-03-02T12:16:43;7.47;;;3.38;;
48207;SDS011;33997;53.278;9.708;2024-03-02T12:19:09;8.20;;;3.67;;
48207;SDS011;33997;53.278;9.708;2024-03-02T12:21:35;7.07;;;3.00;;
48207;SDS011;33997;53.278;9.708;2024-03-02T12:24:01;7.13;;;3.20;;
48207;SDS011;33997;53.278;9.708;2024-03-02T12:26:27;6.90;;;2.92;;
48207;SDS011;33997;53.278;9.708;2024-03-02T12:28:53;6.70;;;3.05;;
48207;SDS011;33997;53.278;9.708;2024-03-02T12:31:19;5.70;;;2.75;;
48207;SDS011;33997;53.278;9.708;2024-03-02T12:33:45;5.07;;;2.47;;
48207;SDS011;33997;53.278;9.708;2024-03-02T12:36:12;5.10;;;2.65;;
48207;SDS011;33997;53.278;9.708;2024-03-02T12:38:42;6.00;;;2.83;;
48207;SDS011;33997;53.278;9.708;2024-03-02T12:41:08;6.63;;;3.20;;
48207;SDS011;33997;53.278;9.708;2024-03-02T12:43:34;5.45;;;2.85;;
48207;SDS011;33997;53.278;9.708;2024-03-02T12:45:59;6.82;;;3.05;;
48207;SDS011;33997;53.278;9.708;2024-03-02T12:48:25;5.72;;;2.75;;
48207;SDS011;33997;53.278;9.708;2024-03-02T12:50:51;6.72;;;2.58;;
48207;SDS011;33997;53.278;9.708;2024-03-02T12:53:17;5.38;;;2.50;;
48207;SDS011;33997;53.278;9.708;2024-03-02T12:55:42;5.13;;;2.33;;
48207;SDS011;33997;53.278;9.708;2024-03-02T12:58:18;5.55;;;2.75;;
48207;SDS011;33997;53.278;9.708;2024-03-02T13:00:45;5.15;;;2.70;;
48207;SDS011;33997;53.278;9.708;2024-03-02T13:03:11;5.82;;;2.75;;
48207;SDS011;33997;53.278;9.708;2024-03-02T13:05:37;7.18;;;2.42;;
48207;SDS011;33997;53.278;9.708;2024-03-02T13:08:02;5.78;;;2.65;;
48207;SDS011;33997;53.278;9.708;2024-03-02T13:10:29;6.15;;;2.80;;
48207;SDS011;33997;53.278;9.708;2024-03-02T13:12:56;6.05;;;2.95;;
48207;SDS011;33997;53.278;9.708;2024-03-02T13:15:21;6.10;;;2.92;;
48207;SDS011;33997;53.278;9.708;2024-03-02T13:17:47;6.25;;;2.70;;
48207;SDS011;33997;53.278;9.708;2024-03-02T13:20:14;6.13;;;2.35;;
48207;SDS011;33997;53.278;9.708;2024-03-02T13:22:39;7.68;;;2.90;;
48207;SDS011;33997;53.278;9.708;2024-03-02T13:25:05;6.88;;;2.50;;
48207;SDS011;33997;53.278;9.708;2024-03-02T13:27:33;5.38;;;2.30;;
48207;SDS011;33997;53.278;9.708;2024-03-02T13:29:58;4.68;;;2.40;;
48207;SDS011;33997;53.278;9.708;2024-03-02T13:32:24;4.78;;;2.15;;
48207;SDS011;33997;53.278;9.708;2024-03-02T13:34:51;5.65;;;2.17;;
48207;SDS011;33997;53.278;9.708;2024-03-02T13:37:16;3.75;;;2.13;;
48207;SDS011;33997;53.278;9.708;2024-03-02T13:39:42;6.18;;;2.55;;
48207;SDS011;33997;53.278;9.708;2024-03-02T13:42:08;5.10;;;2.17;;
48207;SDS011;33997;53.278;9.708;2024-03-02T13:44:34;5.18;;;2.20;;
48207;SDS011;33997;53.278;9.708;2024-03-02T13:47:00;5.90;;;2.47;;
48207;SDS011;33997;53.278;9.708;2024-03-02T13:49:26;4.95;;;2.28;;
48207;SDS011;33997;53.278;9.708;2024-03-02T13:52:08;5.05;;;1.90;;
48207;SDS011;33997;53.278;9.708;2024-03-02T13:54:41;3.80;;;2.00;;
48207;SDS011;33997;53.278;9.708;2024-03-02T13:57:08;6.13;;;2.60;;
48207;SDS011;33997;53.278;9.708;2024-03-02T13:59:34;4.82;;;2.00;;
48207;SDS011;33997;53.278;9.708;2024-03-02T14:02:04;5.28;;;2.40;;
48207;SDS011;33997;53.278;9.708;2024-03-02T14:04:30;5.68;;;2.20;;
48207;SDS011;33997;53.278;9.708;2024-03-02T14:06:57;3.95;;;1.63;;
48207;SDS011;33997;53.278;9.708;2024-03-02T14:09:22;4.32;;;1.83;;
48207;SDS011;33997;53.278;9.708;2024-03-02T14:11:49;4.20;;;1.58;;
48207;SDS011;33997;53.278;9.708;2024-03-02T14:14:15;4.28;;;1.90;;
48207;SDS011;33997;53.278;9.708;2024-03-02T14:16:41;4.97;;;1.92;;
48207;SDS011;33997;53.278;9.708;2024-03-02T14:19:06;3.67;;;1.80;;
48207;SDS011;33997;53.278;9.708;2024-03-02T14:21:32;4.82;;;1.88;;
48207;SDS011;33997;53.278;9.708;2024-03-02T14:23:57;4.07;;;1.90;;
48207;SDS011;33997;53.278;9.708;2024-03-02T14:26:23;3.63;;;1.60;;
48207;SDS011;33997;53.278;9.708;2024-03-02T14:28:48;3.85;;;1.58;;
48207;SDS011;33997;53.278;9.708;2024-03-02T14:31:13;3.08;;;1.50;;
48207;SDS011;33997;53.278;9.708;2024-03-02T14:33:39;2.92;;;1.40;;
48207;SDS011;33997;53.278;9.708;2024-03-02T14:36:04;4.28;;;1.38;;
48207;SDS011;33997;53.278;9.708;2024-03-02T14:38:31;4.85;;;1.90;;
48207;SDS011;33997;53.278;9.708;2024-03-02T14:40:56;3.75;;;1.55;;
48207;SDS011;33997;53.278;9.708;2024-03-02T14:43:22;3.72;;;1.60;;
48207;SDS011;33997;53.278;9.708;2024-03-02T14:45:48;4.03;;;1.70;;
48207;SDS011;33997;53.278;9.708;2024-03-02T14:48:14;4.63;;;1.73;;